Time;durP1;ratioP1;P1;durP2;ratioP2;P2;SDS_P1;SDS_P2;PMS_P1;PMS_P2;Temp;Humidity;BMP_temperature;BMP_pressure;BME280_temperature;BME280_humidity;BME280_pressure;Samples;Min_cycle;Max_cycle;Signal;HPM_P1;HPM_P2
2022/04/04 00:00:13;;;;;;;11.95;9.50;;;;;;;;;;4925732;29;20842;-90
2022/04/04 00:03:19;;;;;;;11.23;10.23;;;;;;;;;;4918611;29;20676;-90
2022/04/04 00:06:28;;;;;;;11.13;9.90;;;;;;;;;;4920354;29;20225;-90
2022/04/04 00:09:30;;;;;;;11.35;10.25;;;;;;;;;;4927078;29;20203;-91
2022/04/04 00:12:36;;;;;;;12.50;11.25;;;;;;;;;;4932765;29;20655;-90
2022/04/04 00:15:42;;;;;;;12.98;11.68;;;;;;;;;;4923884;29;20211;-90
2022/04/04 00:18:48;;;;;;;10.55;9.55;;;;;;;;;;4913671;29;20180;-90
2022/04/04 00:21:54;;;;;;;10.77;9.70;;;;;;;;;;4926574;29;20697;-90
2022/04/04 00:25:00;;;;;;;10.30;9.40;;;;;;;;;;4925123;29;20599;-91
2022/04/04 00:28:05;;;;;;;11.05;10.00;;;;;;;;;;4931694;29;20286;-90
2022/04/04 00:31:11;;;;;;;10.68;9.63;;;;;;;;;;4924921;29;20228;-90
2022/04/04 00:34:17;;;;;;;11.07;10.05;;;;;;;;;;4929477;29;20191;-90
2022/04/04 00:37:23;;;;;;;9.77;9.07;;;;;;;;;;4931962;29;20266;-90
2022/04/04 00:40:30;;;;;;;11.13;10.10;;;;;;;;;;4919243;29;20191;-90
2022/04/04 00:43:35;;;;;;;11.20;10.05;;;;;;;;;;4923591;29;20191;-90
2022/04/04 00:46:41;;;;;;;10.75;9.85;;;;;;;;;;4928952;29;20223;-90
2022/04/04 00:49:48;;;;;;;11.98;10.77;;;;;;;;;;4929758;29;20725;-89
2022/04/04 00:53:08;;;;;;;10.52;9.63;;;;;;;;;;4936743;29;20249;-90
2022/04/04 00:55:54;;;;;;;11.60;10.45;;;;;;;;;;4917856;29;20207;-91
2022/04/04 00:58:21;;;;;;;10.75;9.85;;;;;;;;;;4908112;29;20190;-91
2022/04/04 01:00:48;;;;;;;10.75;9.85;;;;;;;;;;4925215;29;20562;-91
2022/04/04 01:03:17;;;;;;;11.07;10.10;;;;;;;;;;4926707;29;20194;-91
2022/04/04 01:05:44;;;;;;;10.65;9.75;;;;;;;;;;4948068;29;20279;-91
2022/04/04 01:08:16;;;;;;;10.38;9.52;;;;;;;;;;4948308;29;20183;-90
2022/04/04 01:10:43;;;;;;;11.70;10.63;;;;;;;;;;4927227;29;20180;-91
2022/04/04 01:13:10;;;;;;;10.13;9.13;;;;;;;;;;4926824;29;20190;-92
2022/04/04 01:15:36;;;;;;;9.93;8.75;;;;;;;;;;4945704;29;20203;-92
2022/04/04 01:18:03;;;;;;;11.00;10.15;;;;;;;;;;4930354;29;20229;-91
2022/04/04 01:20:29;;;;;;;10.07;9.18;;;;;;;;;;4944784;29;20195;-92
2022/04/04 01:22:58;;;;;;;10.35;9.35;;;;;;;;;;4929825;29;20210;-91
2022/04/04 01:28:14;;;;;;;10.50;9.70;;;;;;;;;;5118055;27;20555;-85
2022/04/04 01:30:40;;;;;;;10.02;9.18;;;;;;;;;;5084496;28;20216;-86
2022/04/04 01:33:07;;;;;;;10.20;7.47;;;;;;;;;;5082565;28;20262;-85
2022/04/04 01:35:33;;;;;;;12.48;10.55;;;;;;;;;;5084436;28;20217;-86
2022/04/04 01:38:00;;;;;;;9.65;8.85;;;;;;;;;;5084660;28;20850;-87
2022/04/04 01:40:26;;;;;;;9.90;9.02;;;;;;;;;;5084557;28;20174;-87
2022/04/04 01:42:54;;;;;;;9.52;8.80;;;;;;;;;;5081836;28;20298;-86
2022/04/04 01:46:23;;;;;;;9.45;8.75;;;;;;;;;;5084708;28;20178;-86
2022/04/04 01:48:06;;;;;;;8.93;8.32;;;;;;;;;;5090200;28;20209;-88
2022/04/04 01:50:32;;;;;;;10.40;7.88;;;;;;;;;;5086002;28;20225;-87
2022/04/04 01:53:25;;;;;;;7.25;6.60;;;;;;;;;;5084060;28;20588;-87
2022/04/04 01:55:45;;;;;;;8.50;7.80;;;;;;;;;;5082817;28;20186;-86
2022/04/04 01:58:11;;;;;;;8.32;7.60;;;;;;;;;;5086771;28;20524;-87
2022/04/04 02:00:38;;;;;;;7.95;7.30;;;;;;;;;;5092827;28;20178;-88
2022/04/04 02:03:04;;;;;;;9.80;7.07;;;;;;;;;;5092934;28;20554;-88
2022/04/04 02:05:31;;;;;;;7.93;7.32;;;;;;;;;;5086969;28;20189;-88
2022/04/04 02:07:56;;;;;;;8.20;7.57;;;;;;;;;;5084656;28;20209;-86
2022/04/04 02:10:23;;;;;;;7.87;7.30;;;;;;;;;;5082564;28;20531;-89
2022/04/04 02:12:49;;;;;;;9.32;7.90;;;;;;;;;;5085377;28;20414;-86
2022/04/04 02:15:15;;;;;;;7.30;6.60;;;;;;;;;;5085295;28;20186;-86
2022/04/04 02:17:41;;;;;;;8.32;7.25;;;;;;;;;;5081765;28;20261;-87
2022/04/04 02:20:08;;;;;;;7.82;7.32;;;;;;;;;;5083611;28;20679;-87
2022/04/04 02:22:38;;;;;;;7.65;6.95;;;;;;;;;;5083080;28;20190;-87
2022/04/04 02:25:04;;;;;;;7.15;6.75;;;;;;;;;;5083282;28;20704;-86
2022/04/04 02:27:30;;;;;;;8.07;7.38;;;;;;;;;;5081103;28;20703;-87
2022/04/04 02:29:57;;;;;;;8.07;6.35;;;;;;;;;;5084701;28;20174;-87
2022/04/04 02:32:23;;;;;;;6.53;6.15;;;;;;;;;;5090422;28;20162;-87
2022/04/04 02:34:49;;;;;;;7.05;6.45;;;;;;;;;;5092634;28;20597;-88
2022/04/04 02:37:15;;;;;;;6.65;5.60;;;;;;;;;;5090410;28;20277;-88
2022/04/04 02:39:42;;;;;;;8.30;6.93;;;;;;;;;;5079449;28;20439;-88
2022/04/04 02:42:08;;;;;;;9.38;7.47;;;;;;;;;;5070271;28;20186;-87
2022/04/04 02:44:34;;;;;;;6.93;6.22;;;;;;;;;;5074033;28;20675;-87
2022/04/04 02:47:00;;;;;;;6.70;6.20;;;;;;;;;;5071057;28;20313;-88
2022/04/04 02:49:29;;;;;;;7.87;7.10;;;;;;;;;;5073936;28;20724;-88
2022/04/04 02:51:55;;;;;;;8.15;7.05;;;;;;;;;;5073633;28;20433;-87
2022/04/04 02:54:21;;;;;;;12.80;7.72;;;;;;;;;;5063396;28;20213;-87
2022/04/04 02:56:47;;;;;;;8.10;7.32;;;;;;;;;;5074105;28;20700;-88
2022/04/04 02:59:13;;;;;;;5.82;5.43;;;;;;;;;;5081658;28;20198;-88
2022/04/04 03:01:41;;;;;;;8.27;7.57;;;;;;;;;;5074506;28;20247;-88
2022/04/04 03:04:07;;;;;;;9.25;8.52;;;;;;;;;;5078501;28;20265;-87
2022/04/04 03:06:36;;;;;;;7.65;6.95;;;;;;;;;;5080437;28;20302;-87
2022/04/04 03:09:02;;;;;;;7.50;6.90;;;;;;;;;;5063448;28;20210;-89
2022/04/04 03:11:28;;;;;;;8.10;7.30;;;;;;;;;;5073715;28;20206;-89
2022/04/04 03:13:54;;;;;;;8.80;7.90;;;;;;;;;;5075017;28;20651;-87
2022/04/04 03:16:20;;;;;;;7.28;6.68;;;;;;;;;;5075256;28;20190;-87
2022/04/04 03:18:46;;;;;;;8.70;7.90;;;;;;;;;;5077121;28;20183;-87
2022/04/04 03:21:13;;;;;;;7.88;7.13;;;;;;;;;;5079236;28;20191;-87
2022/04/04 03:23:42;;;;;;;8.20;7.43;;;;;;;;;;5083366;28;20216;-88
2022/04/04 03:26:09;;;;;;;8.88;8.18;;;;;;;;;;5068607;28;20283;-88
2022/04/04 03:28:35;;;;;;;9.68;8.73;;;;;;;;;;5072205;28;20273;-88
2022/04/04 03:31:01;;;;;;;7.88;7.28;;;;;;;;;;5081159;28;20170;-88
2022/04/04 03:33:27;;;;;;;7.65;6.95;;;;;;;;;;5085962;28;20213;-89
2022/04/04 03:35:53;;;;;;;6.32;5.00;;;;;;;;;;5078954;28;20194;-88
2022/04/04 03:38:20;;;;;;;7.82;7.05;;;;;;;;;;5078578;28;20190;-89
2022/04/04 03:40:46;;;;;;;7.65;6.93;;;;;;;;;;5087689;28;20191;-88
2022/04/04 03:43:13;;;;;;;8.30;7.63;;;;;;;;;;5090843;28;20174;-88
2022/04/04 03:45:39;;;;;;;7.80;6.53;;;;;;;;;;5064018;28;20180;-87
2022/04/04 03:48:08;;;;;;;5.32;5.13;;;;;;;;;;5080956;28;20228;-91
2022/04/04 03:50:35;;;;;;;8.70;7.85;;;;;;;;;;5077919;28;20175;-88
2022/04/04 03:53:04;;;;;;;8.23;7.53;;;;;;;;;;5092919;28;20539;-88
2022/04/04 03:55:31;;;;;;;7.43;6.78;;;;;;;;;;5079417;28;20182;-89
2022/04/04 03:57:58;;;;;;;8.07;7.50;;;;;;;;;;5068787;28;20206;-87
2022/04/04 04:00:25;;;;;;;9.05;7.97;;;;;;;;;;5071971;28;20351;-87
2022/04/04 04:02:51;;;;;;;7.80;7.03;;;;;;;;;;5073462;28;20201;-88
2022/04/04 04:05:20;;;;;;;8.75;7.85;;;;;;;;;;5071813;28;20615;-88
2022/04/04 04:07:46;;;;;;;8.32;6.65;;;;;;;;;;5075277;28;20353;-88
2022/04/04 04:10:12;;;;;;;8.55;7.72;;;;;;;;;;5074132;28;20175;-88
2022/04/04 04:12:41;;;;;;;9.40;8.50;;;;;;;;;;5079297;28;20267;-88
2022/04/04 04:15:08;;;;;;;9.05;8.23;;;;;;;;;;5079702;28;20221;-88
2022/04/04 04:17:34;;;;;;;7.97;7.38;;;;;;;;;;5083324;28;20236;-87
2022/04/04 04:22:46;;;;;;;8.55;6.65;;;;;;;;;;5085863;28;20205;-88
2022/04/04 04:25:14;;;;;;;8.85;8.02;;;;;;;;;;5078430;28;20186;-88
2022/04/04 04:27:41;;;;;;;8.95;8.10;;;;;;;;;;5077627;28;20518;-87
2022/04/04 04:30:07;;;;;;;9.68;8.63;;;;;;;;;;5077327;28;20232;-87
2022/04/04 04:32:33;;;;;;;11.98;9.13;;;;;;;;;;5079989;28;20170;-79
2022/04/04 04:34:59;;;;;;;9.80;8.45;;;;;;;;;;5075553;28;20217;-87
2022/04/04 04:37:25;;;;;;;7.63;6.80;;;;;;;;;;5087651;28;20191;-88
2022/04/04 04:39:52;;;;;;;15.27;8.23;;;;;;;;;;5059356;28;20443;-83
2022/04/04 04:42:18;;;;;;;9.05;8.23;;;;;;;;;;5072902;28;20190;-88
2022/04/04 04:44:45;;;;;;;9.13;8.32;;;;;;;;;;5075748;28;20229;-89
2022/04/04 04:47:11;;;;;;;9.75;8.18;;;;;;;;;;5088146;28;20305;-86
2022/04/04 04:49:37;;;;;;;9.90;8.90;;;;;;;;;;5074509;28;20174;-88
2022/04/04 04:52:03;;;;;;;9.32;8.55;;;;;;;;;;5071629;28;20253;-87
2022/04/04 04:54:30;;;;;;;9.88;8.98;;;;;;;;;;5074048;28;20210;-87
2022/04/04 04:56:56;;;;;;;9.27;8.38;;;;;;;;;;5070269;28;20195;-90
2022/04/04 04:59:22;;;;;;;9.52;8.55;;;;;;;;;;5072218;28;20199;-81
2022/04/04 05:01:49;;;;;;;10.40;9.43;;;;;;;;;;5069325;28;20190;-88
2022/04/04 05:04:15;;;;;;;10.50;8.93;;;;;;;;;;5070592;28;20703;-89
2022/04/04 05:06:41;;;;;;;12.80;9.55;;;;;;;;;;5069009;28;20245;-87
2022/04/04 05:09:07;;;;;;;10.50;9.10;;;;;;;;;;5073142;28;20174;-89
2022/04/04 05:11:33;;;;;;;10.05;9.02;;;;;;;;;;5070499;28;20186;-87
2022/04/04 05:13:59;;;;;;;9.82;8.93;;;;;;;;;;5069988;28;20635;-88
2022/04/04 05:16:28;;;;;;;14.13;8.07;;;;;;;;;;5074131;28;20341;-90
2022/04/04 05:18:57;;;;;;;9.10;8.25;;;;;;;;;;5078040;28;20391;-86
2022/04/04 05:21:24;;;;;;;10.68;9.68;;;;;;;;;;5075208;28;20216;-89
2022/04/04 05:23:50;;;;;;;5.85;5.40;;;;;;;;;;5077165;28;20205;-88
2022/04/04 05:26:16;;;;;;;6.00;5.35;;;;;;;;;;5068824;28;20237;-82
2022/04/04 05:28:45;;;;;;;9.27;7.50;;;;;;;;;;5079940;28;20182;-88
2022/04/04 05:31:11;;;;;;;8.15;7.40;;;;;;;;;;5079211;28;20194;-86
2022/04/04 05:33:37;;;;;;;7.43;6.35;;;;;;;;;;5077443;28;20217;-82
2022/04/04 05:36:04;;;;;;;6.75;6.22;;;;;;;;;;5073024;28;20202;-86
2022/04/04 05:38:31;;;;;;;10.95;7.28;;;;;;;;;;5070053;28;20531;-78
2022/04/04 05:41:00;;;;;;;9.32;5.53;;;;;;;;;;5078063;28;20189;-88
2022/04/04 05:43:26;;;;;;;11.52;7.30;;;;;;;;;;5077977;28;20162;-86
2022/04/04 05:45:53;;;;;;;7.67;4.22;;;;;;;;;;4376591;28;10021571;-85
2022/04/04 05:48:19;;;;;;;10.35;7.32;;;;;;;;;;5074715;28;20213;-87
2022/04/04 05:50:45;;;;;;;12.57;7.07;;;;;;;;;;5067966;28;20274;-85
2022/04/04 05:53:11;;;;;;;8.52;7.68;;;;;;;;;;5069398;28;20438;-87
2022/04/04 05:55:37;;;;;;;4.72;4.53;;;;;;;;;;5067374;28;20236;-88
2022/04/04 05:58:03;;;;;;;9.95;7.60;;;;;;;;;;5069976;28;20194;-86
2022/04/04 06:00:29;;;;;;;10.82;6.20;;;;;;;;;;5064603;28;20244;-88
2022/04/04 06:02:56;;;;;;;12.80;6.88;;;;;;;;;;5068858;28;20237;-88
2022/04/04 06:05:22;;;;;;;7.35;6.55;;;;;;;;;;5071137;28;20217;-88
2022/04/04 06:07:48;;;;;;;8.02;5.10;;;;;;;;;;5069865;28;20215;-86
2022/04/04 06:10:16;;;;;;;8.10;7.03;;;;;;;;;;5073124;28;20284;-89
2022/04/04 06:12:43;;;;;;;8.55;7.78;;;;;;;;;;5074969;28;20198;-82
2022/04/04 06:15:10;;;;;;;6.53;4.40;;;;;;;;;;5068872;28;20200;-85
2022/04/04 06:17:38;;;;;;;7.38;6.43;;;;;;;;;;5067610;28;20182;-83
2022/04/04 06:20:05;;;;;;;5.97;5.47;;;;;;;;;;5066208;28;20183;-83
2022/04/04 06:22:38;;;;;;;9.57;7.88;;;;;;;;;;5063961;28;20217;-85
2022/04/04 06:25:04;;;;;;;6.57;6.15;;;;;;;;;;5067987;28;20162;-84
2022/04/04 06:27:30;;;;;;;7.55;6.05;;;;;;;;;;5063965;28;20268;-83
2022/04/04 06:29:57;;;;;;;8.57;5.10;;;;;;;;;;5066139;28;20601;-85
2022/04/04 06:32:24;;;;;;;5.90;5.50;;;;;;;;;;5065876;28;20196;-84
2022/04/04 06:34:51;;;;;;;5.68;4.63;;;;;;;;;;5067451;28;20217;-84
2022/04/04 06:37:17;;;;;;;10.98;5.82;;;;;;;;;;5068008;28;20193;-84
2022/04/04 06:39:43;;;;;;;9.13;7.28;;;;;;;;;;5065278;28;20405;-83
2022/04/04 06:42:09;;;;;;;6.55;5.97;;;;;;;;;;5059049;28;20202;-83
2022/04/04 06:44:35;;;;;;;5.80;5.37;;;;;;;;;;5064839;28;20189;-84
2022/04/04 06:47:01;;;;;;;11.33;6.70;;;;;;;;;;5064336;28;20480;-84
2022/04/04 06:49:27;;;;;;;7.72;7.15;;;;;;;;;;5058755;28;20490;-84
2022/04/04 06:51:53;;;;;;;6.93;6.53;;;;;;;;;;5064655;28;20174;-84
2022/04/04 06:54:20;;;;;;;5.60;5.20;;;;;;;;;;5064906;28;20717;-85
2022/04/04 06:56:48;;;;;;;6.03;5.33;;;;;;;;;;5066175;28;20440;-85
2022/04/04 06:59:16;;;;;;;10.90;6.60;;;;;;;;;;5063260;28;20452;-79
2022/04/04 07:01:43;;;;;;;10.02;7.05;;;;;;;;;;5066163;28;20305;-85
2022/04/04 07:04:10;;;;;;;6.72;5.90;;;;;;;;;;5064988;28;20190;-84
2022/04/04 07:06:36;;;;;;;6.43;6.03;;;;;;;;;;5075103;28;20207;-87
2022/04/04 07:09:03;;;;;;;7.60;7.05;;;;;;;;;;5067532;28;20494;-85
2022/04/04 07:11:29;;;;;;;9.67;5.93;;;;;;;;;;5071127;28;20175;-87
2022/04/04 07:13:58;;;;;;;4.50;4.20;;;;;;;;;;5072877;28;20484;-86
2022/04/04 07:16:25;;;;;;;7.30;6.80;;;;;;;;;;5072936;28;20639;-83
2022/04/04 07:18:52;;;;;;;9.23;6.10;;;;;;;;;;5067910;28;20189;-85
2022/04/04 07:21:18;;;;;;;7.35;5.13;;;;;;;;;;5069985;28;20179;-86
2022/04/04 07:23:44;;;;;;;6.22;5.82;;;;;;;;;;5074934;28;20179;-88
2022/04/04 07:26:10;;;;;;;7.25;6.60;;;;;;;;;;5075405;28;20502;-87
2022/04/04 07:28:38;;;;;;;9.30;7.22;;;;;;;;;;5076860;28;20699;-87
2022/04/04 07:31:09;;;;;;;7.72;7.03;;;;;;;;;;5080128;28;20643;-88
2022/04/04 07:33:35;;;;;;;7.07;6.50;;;;;;;;;;5075142;28;20215;-85
2022/04/04 07:36:01;;;;;;;7.15;6.55;;;;;;;;;;5075848;28;20603;-85
2022/04/04 07:38:27;;;;;;;6.82;5.57;;;;;;;;;;5076996;28;20198;-84
2022/04/04 07:40:53;;;;;;;6.45;6.05;;;;;;;;;;5078274;28;20250;-85
2022/04/04 07:43:19;;;;;;;6.03;5.57;;;;;;;;;;5078258;28;20193;-84
2022/04/04 07:45:47;;;;;;;7.15;6.65;;;;;;;;;;5085253;28;20186;-88
2022/04/04 07:48:14;;;;;;;7.10;6.63;;;;;;;;;;5079794;28;20210;-86
2022/04/04 07:50:43;;;;;;;5.23;5.03;;;;;;;;;;5086036;28;20271;-86
2022/04/04 07:53:09;;;;;;;7.13;6.17;;;;;;;;;;5085624;28;20447;-88
2022/04/04 07:55:36;;;;;;;6.20;5.50;;;;;;;;;;5082917;28;20464;-87
2022/04/04 07:58:03;;;;;;;7.75;7.07;;;;;;;;;;5075220;28;20198;-86
2022/04/04 08:00:29;;;;;;;5.15;4.82;;;;;;;;;;5074174;28;20190;-86
2022/04/04 08:02:55;;;;;;;6.50;5.90;;;;;;;;;;5074164;28;20201;-86
2022/04/04 08:05:21;;;;;;;7.95;6.95;;;;;;;;;;5057262;28;20175;-86
2022/04/04 08:07:48;;;;;;;7.35;6.85;;;;;;;;;;5075335;28;20198;-84
2022/04/04 08:10:15;;;;;;;7.47;6.88;;;;;;;;;;5067501;28;20526;-88
2022/04/04 08:12:41;;;;;;;6.82;6.22;;;;;;;;;;5075473;28;20247;-87
2022/04/04 08:15:15;;;;;;;5.73;5.33;;;;;;;;;;5080124;28;20567;-88
2022/04/04 08:17:41;;;;;;;6.47;5.90;;;;;;;;;;5067608;28;20434;-86
2022/04/04 08:20:11;;;;;;;6.43;5.13;;;;;;;;;;5070217;28;20185;-88
2022/04/04 08:22:44;;;;;;;7.03;6.40;;;;;;;;;;5074850;28;20277;-86
2022/04/04 08:25:11;;;;;;;7.82;4.80;;;;;;;;;;5074869;28;20194;-82
2022/04/04 08:27:37;;;;;;;7.15;4.07;;;;;;;;;;5063113;28;20225;-83
2022/04/04 08:30:05;;;;;;;8.03;5.80;;;;;;;;;;5070108;28;20171;-82
2022/04/04 08:32:32;;;;;;;5.85;5.47;;;;;;;;;;5068059;28;20423;-83
2022/04/04 08:34:58;;;;;;;10.90;5.82;;;;;;;;;;5068931;28;20213;-82
2022/04/04 08:37:24;;;;;;;7.03;6.32;;;;;;;;;;5065813;28;20303;-83
2022/04/04 08:39:50;;;;;;;11.07;5.25;;;;;;;;;;5068498;28;20181;-84
2022/04/04 08:42:20;;;;;;;6.97;6.38;;;;;;;;;;5068005;28;20281;-84
2022/04/04 08:44:49;;;;;;;8.15;7.45;;;;;;;;;;5071716;28;20198;-86
2022/04/04 08:47:26;;;;;;;7.53;5.95;;;;;;;;;;5075781;28;20497;-86
2022/04/04 08:49:52;;;;;;;6.60;5.23;;;;;;;;;;5073735;28;20174;-90
2022/04/04 08:52:19;;;;;;;5.68;4.95;;;;;;;;;;5072727;28;20436;-88
2022/04/04 08:54:45;;;;;;;6.00;5.40;;;;;;;;;;5073275;28;20178;-85
2022/04/04 08:57:26;;;;;;;6.13;5.60;;;;;;;;;;4891382;28;10000473;-80
2022/04/04 08:59:52;;;;;;;6.93;6.22;;;;;;;;;;5057116;28;20406;-80
2022/04/04 09:02:18;;;;;;;5.63;5.28;;;;;;;;;;5059430;28;20722;-81
2022/04/04 09:04:50;;;;;;;6.93;6.30;;;;;;;;;;5062715;28;20547;-81
2022/04/04 09:07:18;;;;;;;3.25;3.15;;;;;;;;;;5057254;28;20651;-78
2022/04/04 09:09:50;;;;;;;8.70;6.97;;;;;;;;;;5060610;28;20209;-77
2022/04/04 09:12:18;;;;;;;5.85;5.40;;;;;;;;;;5061303;28;20198;-80
2022/04/04 09:14:46;;;;;;;9.07;7.22;;;;;;;;;;5061320;28;20234;-80
2022/04/04 09:17:16;;;;;;;8.43;5.43;;;;;;;;;;5059402;28;20214;-82
2022/04/04 09:19:42;;;;;;;6.53;6.07;;;;;;;;;;5056198;28;20256;-80
2022/04/04 09:22:10;;;;;;;7.22;6.72;;;;;;;;;;5060994;28;20194;-82
2022/04/04 09:24:42;;;;;;;4.88;4.53;;;;;;;;;;5063133;28;20194;-78
2022/04/04 09:27:12;;;;;;;5.15;4.55;;;;;;;;;;5056702;28;20226;-81
2022/04/04 09:29:42;;;;;;;6.60;5.40;;;;;;;;;;5053387;28;20190;-82
2022/04/04 09:32:14;;;;;;;6.50;5.65;;;;;;;;;;5056171;28;20275;-81
2022/04/04 09:34:49;;;;;;;8.68;4.47;;;;;;;;;;5054186;28;20237;-79
2022/04/04 09:37:16;;;;;;;13.05;6.22;;;;;;;;;;5061200;28;20221;-80
2022/04/04 09:39:42;;;;;;;7.30;6.60;;;;;;;;;;5061826;28;20737;-79
2022/04/04 09:42:15;;;;;;;4.85;4.30;;;;;;;;;;5061234;28;20516;-80
2022/04/04 09:44:41;;;;;;;7.72;7.15;;;;;;;;;;5066301;28;20616;-79
2022/04/04 09:47:08;;;;;;;6.00;5.50;;;;;;;;;;5058457;28;20201;-79
2022/04/04 09:49:39;;;;;;;4.63;4.22;;;;;;;;;;5069072;28;20856;-82
2022/04/04 09:52:05;;;;;;;5.95;5.55;;;;;;;;;;5065430;28;20651;-80
2022/04/04 09:54:31;;;;;;;4.22;4.03;;;;;;;;;;5070076;28;20178;-80
2022/04/04 09:57:15;;;;;;;6.50;6.00;;;;;;;;;;5067365;28;20212;-80
2022/04/04 09:59:42;;;;;;;6.33;4.50;;;;;;;;;;5066542;28;20190;-81
2022/04/04 10:02:08;;;;;;;6.33;5.40;;;;;;;;;;5066036;28;20888;-81
2022/04/04 10:04:35;;;;;;;5.67;5.37;;;;;;;;;;5069174;28;20516;-80
2022/04/04 10:07:06;;;;;;;8.05;7.45;;;;;;;;;;5069156;28;20428;-82
2022/04/04 10:09:32;;;;;;;7.20;6.70;;;;;;;;;;5064527;28;20201;-80
2022/04/04 10:11:58;;;;;;;6.28;5.85;;;;;;;;;;5067509;28;20190;-79
2022/04/04 10:14:25;;;;;;;7.93;6.22;;;;;;;;;;5067975;28;20220;-79
2022/04/04 10:16:54;;;;;;;9.83;8.83;;;;;;;;;;5063197;28;20739;-80
2022/04/04 10:19:21;;;;;;;7.80;7.13;;;;;;;;;;5069014;28;20448;-79
2022/04/04 10:21:47;;;;;;;9.73;8.95;;;;;;;;;;5065920;28;20651;-80
2022/04/04 10:24:14;;;;;;;7.82;7.30;;;;;;;;;;5068504;28;20194;-82
2022/04/04 10:26:59;;;;;;;5.53;5.15;;;;;;;;;;5053784;28;20699;-85
2022/04/04 10:29:38;;;;;;;10.45;8.55;;;;;;;;;;5054718;28;20173;-80
2022/04/04 10:32:05;;;;;;;6.60;6.00;;;;;;;;;;4707104;28;9999970;-79
2022/04/04 10:34:41;;;;;;;9.50;8.90;;;;;;;;;;5065063;28;20205;-80
2022/04/04 10:37:08;;;;;;;9.30;8.65;;;;;;;;;;5070513;28;21045;-81
2022/04/04 10:39:40;;;;;;;8.30;7.70;;;;;;;;;;5088177;28;20170;-80
2022/04/04 10:42:24;;;;;;;7.43;6.72;;;;;;;;;;5080456;28;20189;-78
2022/04/04 10:44:56;;;;;;;7.95;7.32;;;;;;;;;;5062353;28;20206;-80
2022/04/04 10:47:29;;;;;;;10.90;9.80;;;;;;;;;;5066146;28;20250;-81
2022/04/04 10:50:20;;;;;;;11.77;8.82;;;;;;;;;;5068156;28;20228;-81
2022/04/04 10:52:46;;;;;;;11.13;6.95;;;;;;;;;;5066262;28;20231;-81
2022/04/04 10:55:27;;;;;;;9.73;8.30;;;;;;;;;;5068720;28;20522;-81
2022/04/04 10:58:00;;;;;;;11.02;10.13;;;;;;;;;;5064819;28;20217;-81
2022/04/04 11:00:46;;;;;;;11.60;10.60;;;;;;;;;;5068481;28;20174;-80
2022/04/04 11:03:12;;;;;;;13.18;10.13;;;;;;;;;;5067157;28;20190;-83
2022/04/04 11:08:44;;;;;;;15.07;12.27;;;;;;;;;;5066989;28;20424;-84
2022/04/04 11:11:19;;;;;;;13.55;11.43;;;;;;;;;;5068167;28;20171;-83
2022/04/04 11:13:50;;;;;;;16.30;13.40;;;;;;;;;;5065684;28;20186;-82
2022/04/04 11:16:17;;;;;;;14.45;13.07;;;;;;;;;;5076554;28;20206;-82
2022/04/04 11:18:53;;;;;;;13.80;12.60;;;;;;;;;;5074662;28;20823;-81
2022/04/04 11:21:38;;;;;;;11.20;9.38;;;;;;;;;;5076003;28;20646;-82
2022/04/04 11:24:08;;;;;;;8.57;7.78;;;;;;;;;;5076941;28;20174;-81
2022/04/04 11:26:58;;;;;;;11.07;10.18;;;;;;;;;;5069791;28;20313;-86
2022/04/04 11:29:29;;;;;;;15.50;14.15;;;;;;;;;;5079882;28;20198;-88
2022/04/04 11:32:19;;;;;;;10.48;9.52;;;;;;;;;;5078088;28;20174;-85
2022/04/04 11:34:45;;;;;;;14.38;13.07;;;;;;;;;;5070493;28;20729;-80
2022/04/04 11:37:17;;;;;;;11.10;10.10;;;;;;;;;;5076111;28;20212;-84
2022/04/04 11:39:43;;;;;;;14.25;12.85;;;;;;;;;;5067596;28;20560;-86
2022/04/04 11:42:10;;;;;;;14.75;13.27;;;;;;;;;;5064210;28;20467;-85
2022/04/04 11:44:44;;;;;;;8.68;7.88;;;;;;;;;;5063411;28;20611;-83
2022/04/04 11:47:11;;;;;;;5.80;5.45;;;;;;;;;;5067957;28;20244;-84
2022/04/04 11:49:58;;;;;;;14.60;13.18;;;;;;;;;;5068694;28;20704;-85
2022/04/04 11:52:25;;;;;;;8.30;7.55;;;;;;;;;;5065430;28;20183;-84
2022/04/04 11:54:52;;;;;;;15.20;13.00;;;;;;;;;;5068645;28;20536;-82
2022/04/04 11:57:18;;;;;;;14.25;12.85;;;;;;;;;;5067786;28;20260;-83
2022/04/04 11:59:45;;;;;;;13.75;12.45;;;;;;;;;;5067570;28;20216;-82
2022/04/04 12:02:23;;;;;;;16.15;14.55;;;;;;;;;;5067965;28;20187;-82
2022/04/04 12:04:49;;;;;;;12.95;11.60;;;;;;;;;;5071809;28;20181;-84
2022/04/04 12:07:17;;;;;;;14.75;13.45;;;;;;;;;;5076921;28;20225;-84
2022/04/04 12:09:46;;;;;;;8.20;7.50;;;;;;;;;;5070417;28;20265;-84
2022/04/04 12:12:13;;;;;;;14.70;13.40;;;;;;;;;;5072342;28;20786;-84
2022/04/04 12:14:41;;;;;;;11.10;10.05;;;;;;;;;;5066853;28;20213;-86
2022/04/04 12:17:08;;;;;;;11.70;10.60;;;;;;;;;;5067663;28;20214;-83
2022/04/04 12:19:44;;;;;;;8.52;7.97;;;;;;;;;;5067999;28;20191;-85
2022/04/04 12:24:55;;;;;;;8.07;7.40;;;;;;;;;;5066577;28;20209;-86
2022/04/04 12:27:23;;;;;;;16.27;14.77;;;;;;;;;;5069229;28;20710;-86
2022/04/04 12:29:57;;;;;;;11.20;10.30;;;;;;;;;;5074394;28;20270;-84
2022/04/04 12:32:24;;;;;;;8.40;7.82;;;;;;;;;;5078144;28;20241;-83
2022/04/04 12:35:00;;;;;;;12.37;9.63;;;;;;;;;;4721517;28;10000016;-89
2022/04/04 12:37:33;;;;;;;14.82;13.43;;;;;;;;;;5073807;28;20437;-85
2022/04/04 12:40:18;;;;;;;17.95;14.27;;;;;;;;;;5069462;28;20500;-83
2022/04/04 12:42:45;;;;;;;14.45;13.05;;;;;;;;;;5073414;28;20186;-81
2022/04/04 12:45:11;;;;;;;16.23;14.82;;;;;;;;;;5080256;28;20648;-86
2022/04/04 12:47:56;;;;;;;9.27;8.57;;;;;;;;;;5067498;28;20277;-82
2022/04/04 12:50:24;;;;;;;14.65;13.25;;;;;;;;;;5069717;28;20552;-85
2022/04/04 12:53:01;;;;;;;10.77;9.93;;;;;;;;;;5065898;28;20496;-87
2022/04/04 12:55:27;;;;;;;12.20;9.25;;;;;;;;;;5066565;28;20417;-84
2022/04/04 12:57:54;;;;;;;15.98;13.25;;;;;;;;;;5073015;28;20218;-85
2022/04/04 13:00:35;;;;;;;14.05;12.65;;;;;;;;;;5065098;28;20179;-84
2022/04/04 13:03:18;;;;;;;8.70;8.13;;;;;;;;;;5065193;28;20423;-87
2022/04/04 13:05:47;;;;;;;11.02;10.02;;;;;;;;;;5077587;28;20174;-83
2022/04/04 13:08:32;;;;;;;11.13;10.20;;;;;;;;;;5067882;28;20315;-84
2022/04/04 13:11:02;;;;;;;13.80;12.50;;;;;;;;;;5063116;28;20185;-83
2022/04/04 13:13:33;;;;;;;13.93;12.68;;;;;;;;;;5064165;28;20614;-86
2022/04/04 13:16:00;;;;;;;11.07;10.07;;;;;;;;;;5065784;28;20206;-86
2022/04/04 13:18:26;;;;;;;14.38;12.68;;;;;;;;;;5063686;28;20259;-84
2022/04/04 13:20:52;;;;;;;8.68;8.05;;;;;;;;;;5066122;28;20257;-87
2022/04/04 13:23:20;;;;;;;11.25;10.15;;;;;;;;;;5063263;28;20194;-81
2022/04/04 13:25:46;;;;;;;13.35;12.15;;;;;;;;;;5063629;28;20170;-85
2022/04/04 13:28:14;;;;;;;11.38;10.38;;;;;;;;;;5061258;28;20222;-84
2022/04/04 13:30:40;;;;;;;9.10;8.48;;;;;;;;;;5063767;28;20261;-81
2022/04/04 13:33:09;;;;;;;6.78;6.38;;;;;;;;;;5063381;28;20405;-86
2022/04/04 13:35:38;;;;;;;14.40;11.55;;;;;;;;;;5060581;28;20545;-86
2022/04/04 13:38:04;;;;;;;13.32;12.32;;;;;;;;;;5065258;28;20251;-83
2022/04/04 13:40:30;;;;;;;9.70;8.80;;;;;;;;;;5065058;28;20189;-86
2022/04/04 13:42:58;;;;;;;6.13;5.63;;;;;;;;;;5066889;28;20174;-82
2022/04/04 13:45:24;;;;;;;8.35;7.65;;;;;;;;;;5067218;28;20508;-84
2022/04/04 13:47:51;;;;;;;10.90;9.63;;;;;;;;;;5069817;28;20198;-85
2022/04/04 13:50:17;;;;;;;7.13;6.63;;;;;;;;;;5065572;28;20186;-84
2022/04/04 13:52:47;;;;;;;13.60;12.40;;;;;;;;;;5067456;28;20519;-85
2022/04/04 13:55:16;;;;;;;17.85;12.30;;;;;;;;;;5064905;28;20183;-82
2022/04/04 13:57:47;;;;;;;9.45;8.75;;;;;;;;;;5068693;28;20224;-85
2022/04/04 14:00:14;;;;;;;13.27;10.98;;;;;;;;;;5068966;28;20180;-83
2022/04/04 14:02:47;;;;;;;16.40;15.00;;;;;;;;;;5090685;28;20178;-85
2022/04/04 14:05:17;;;;;;;7.47;7.03;;;;;;;;;;5082095;28;20226;-84
2022/04/04 14:07:43;;;;;;;11.10;10.13;;;;;;;;;;5066439;28;20174;-85
2022/04/04 14:10:12;;;;;;;14.57;13.30;;;;;;;;;;5069822;28;20210;-85
2022/04/04 14:12:38;;;;;;;12.18;11.18;;;;;;;;;;5086524;28;20178;-83
2022/04/04 14:15:08;;;;;;;10.55;8.48;;;;;;;;;;5084423;28;20504;-84
2022/04/04 14:17:36;;;;;;;13.55;12.32;;;;;;;;;;5069094;28;20214;-84
2022/04/04 14:20:03;;;;;;;10.38;9.48;;;;;;;;;;5068392;28;20170;-85
2022/04/04 14:22:35;;;;;;;15.45;14.05;;;;;;;;;;5088285;28;20192;-85
2022/04/04 14:25:01;;;;;;;12.50;9.40;;;;;;;;;;5083223;28;20227;-84
2022/04/04 14:27:28;;;;;;;9.98;9.27;;;;;;;;;;5067414;28;20202;-81
2022/04/04 14:29:54;;;;;;;13.88;12.45;;;;;;;;;;5064969;28;20175;-81
2022/04/04 14:32:21;;;;;;;13.80;12.63;;;;;;;;;;5085260;28;20198;-82
2022/04/04 14:34:48;;;;;;;10.88;9.88;;;;;;;;;;5089051;28;20208;-82
2022/04/04 14:37:14;;;;;;;8.82;8.05;;;;;;;;;;5070021;28;20230;-83
2022/04/04 14:39:43;;;;;;;13.55;12.45;;;;;;;;;;5074402;28;20633;-86
2022/04/04 14:42:10;;;;;;;13.13;12.02;;;;;;;;;;5076694;28;20293;-84
2022/04/04 14:44:37;;;;;;;10.13;7.60;;;;;;;;;;5075059;28;20636;-81
2022/04/04 14:47:03;;;;;;;10.02;9.20;;;;;;;;;;5078058;28;22624;-81
2022/04/04 14:49:33;;;;;;;14.35;12.93;;;;;;;;;;5079379;28;20194;-86
2022/04/04 14:51:59;;;;;;;14.13;12.90;;;;;;;;;;5074028;28;20187;-84
2022/04/04 14:54:25;;;;;;;15.68;14.10;;;;;;;;;;5071733;28;20410;-86
2022/04/04 14:56:52;;;;;;;15.23;13.88;;;;;;;;;;5071313;28;20210;-86
2022/04/04 14:59:19;;;;;;;14.02;12.75;;;;;;;;;;5071565;28;20195;-84
2022/04/04 15:01:46;;;;;;;10.88;9.88;;;;;;;;;;5070196;28;20182;-85
2022/04/04 15:04:12;;;;;;;12.90;11.80;;;;;;;;;;5074922;28;20231;-83